Airfield :
LOGIN :

Register | Disclaimer

   EN    FR    IT 

 










Legend :    VFR   Marginal VFR   IFR   Intensive IFR   Very Intensive IFR
Visi :
Ceiling :
>= 8 km
>= 3000ft
5 to 8 km
1000 to 3000 ft
1500m to 5 km
500 to 1000 ft
800 to 1500m
200 to 500 ft
< 800m
< 200 ft
Symbols :   Thunderstorms  Fog  Heavy snow  Heavy precipitations  Wind > 20 kt
SIGMETs :     Misc.  Thunderstorms  Icing  Turbulence  Mountain Waves  Volcanic Ashes






- Airport Elevation : 1363 ft


ETIC - Grafenwohr Army Air Field

CURRENT METAR :
  • 290710Z AUTO 00000KT 5000 BR SCT006 OVC015 02/02 A2998 RMK AO2 CIG 005V015 SLP173 FZRANO $

EXPIRED METARs :
  • 290655Z AUTO 08003KT 5000 BR BKN005 OVC014 02/02 A2998 RMK AO2 CIG 005V014 BKN V SCT SLP173 T00220018 FZRANO $
  • 290640Z AUTO 00000KT 6000 BR SCT005 OVC014 02/02 A2998 RMK AO2 CIG 005V014 SLP173 FZRANO $
  • 290555Z AUTO 00000KT 6000 BR FEW007 OVC012 02/02 A2997 RMK AO2 SLP169 60001 T00210017 10021 20018 52008 FZRANO $
  • 290525Z AUTO 00000KT 6000 BR OVC007 02/02 A2997 RMK AO2 OVC V BKN SLP169 FZRANO $
  • 290455Z AUTO 00000KT 6000 BR BKN008 OVC012 02/02 A2996 RMK AO2 RAE0355UPB0355E01DZB01E39 BKN V OVC SLP166 P0000 T00200016 FZRANO $

TAF AMD TAF ETIC
Valid from the 29 at 04:00 until the 30 at 08:00 UTC


290440Z 2904/3008 VRB03KT 6000 -RA BR OVC009 620208 QNH2995INS
TEMPO 2904/2909 OVC008
BECMG 2908/2909 VRB03KT 5000 -RA BR BKN005 OVC010 620208 QNH2995INS
BECMG 2913/2914 VRB03KT 8000 -RA OVC010 620208 QNH3003INS
BECMG 2917/2918 08006KT 5000 BR OVC012 650208 QNH3007INS
TEMPO 3002/3006 3200 -RASN BR OVC008 650089 TX05/2913Z TN01/2923Z



MET'MAP, your aeronautical weather chart ! - Copyright ORBIFLY December 2007 - Disclaimer

ORBIFLY MET'MAP TEAM :

Programming & Development : Alexandra Zaïnal
Original concept : Baudouin d'Aumeries
Technical & hardware support : Manuel Goepfert
Assistance : Marc-Olivier Méhu




SOURCES & CREDITS :

   NOAA